Terminal Aerodrome Forecast
Issued by NWS Spokane, WA

Home | Current Version | Previous Version | Text Only | Print | Product List | Glossary On
Versions: 1 2 3 4 5 6 7 8 9 10 11 12 13 14 15 16 17 18 19 20 21 22 23 24 25 26 27 28 29 30 31 32 33
000
FTUS46 KOTX 201002 AAB
TAFGEG
TAF AMD
KGEG 201002Z 2010/2106 20012KT P6SM -RA SCT010 SCT060 OVC070
      TEMPO 2010/2012 6SM -SHRA BR BKN018 OVC050
     FM201200 21015G23KT P6SM VCSH BKN025 OVC050
     FM201600 22018G26KT P6SM BKN040 OVC080
     FM202000 23020G27KT P6SM VCSH BKN050 BKN100
     FM210200 22015G23KT P6SM SCT050 BKN100=

USA.gov is the U.S. government's official web portal to all federal, state and local government web resources and services.